sensor_id;sensor_type;location;lat;lon;timestamp;temperature;humidity
5705;DHT22;2877;48.238;11.160;2022-11-15T00:00:46;4.60;99.90
5705;DHT22;2877;48.238;11.160;2022-11-15T00:03:20;4.60;99.90
5705;DHT22;2877;48.238;11.160;2022-11-15T00:05:46;4.70;99.90
5705;DHT22;2877;48.238;11.160;2022-11-15T00:08:12;4.60;99.90
5705;DHT22;2877;48.238;11.160;2022-11-15T00:10:38;4.60;99.90
5705;DHT22;2877;48.238;11.160;2022-11-15T00:13:05;4.60;99.90
5705;DHT22;2877;48.238;11.160;2022-11-15T00:15:31;4.50;99.90
5705;DHT22;2877;48.238;11.160;2022-11-15T00:17:57;4.60;99.90
5705;DHT22;2877;48.238;11.160;2022-11-15T00:20:22;4.50;99.90
5705;DHT22;2877;48.238;11.160;2022-11-15T00:22:48;4.40;99.90
5705;DHT22;2877;48.238;11.160;2022-11-15T00:25:13;4.30;99.90
5705;DHT22;2877;48.238;11.160;2022-11-15T00:27:39;4.20;99.90
5705;DHT22;2877;48.238;11.160;2022-11-15T00:30:05;4.00;99.90
5705;DHT22;2877;48.238;11.160;2022-11-15T00:32:31;3.90;99.90
5705;DHT22;2877;48.238;11.160;2022-11-15T00:34:57;3.90;99.90
5705;DHT22;2877;48.238;11.160;2022-11-15T00:37:23;3.90;99.90
5705;DHT22;2877;48.238;11.160;2022-11-15T00:39:48;3.80;99.90
5705;DHT22;2877;48.238;11.160;2022-11-15T00:42:14;3.80;99.90
5705;DHT22;2877;48.238;11.160;2022-11-15T00:44:40;3.70;99.90
5705;DHT22;2877;48.238;11.160;2022-11-15T00:47:05;3.70;99.90
5705;DHT22;2877;48.238;11.160;2022-11-15T00:49:31;3.60;99.90
5705;DHT22;2877;48.238;11.160;2022-11-15T00:51:56;3.60;99.90
5705;DHT22;2877;48.238;11.160;2022-11-15T00:54:22;3.60;99.90
5705;DHT22;2877;48.238;11.160;2022-11-15T00:56:47;3.60;99.90
5705;DHT22;2877;48.238;11.160;2022-11-15T00:59:13;3.60;99.90
5705;DHT22;2877;48.238;11.160;2022-11-15T01:01:38;3.70;99.90
5705;DHT22;2877;48.238;11.160;2022-11-15T01:04:04;3.70;99.90
5705;DHT22;2877;48.238;11.160;2022-11-15T01:06:29;3.70;99.90
5705;DHT22;2877;48.238;11.160;2022-11-15T01:08:55;3.70;99.90
5705;DHT22;2877;48.238;11.160;2022-11-15T01:11:21;3.80;99.90
5705;DHT22;2877;48.238;11.160;2022-11-15T01:13:46;3.70;99.90
5705;DHT22;2877;48.238;11.160;2022-11-15T01:16:14;3.70;99.90
5705;DHT22;2877;48.238;11.160;2022-11-15T01:18:41;3.70;99.90
5705;DHT22;2877;48.238;11.160;2022-11-15T01:21:12;3.50;99.90
5705;DHT22;2877;48.238;11.160;2022-11-15T01:23:38;3.40;99.90
5705;DHT22;2877;48.238;11.160;2022-11-15T01:26:06;3.30;99.90
5705;DHT22;2877;48.238;11.160;2022-11-15T01:28:34;3.30;99.90
5705;DHT22;2877;48.238;11.160;2022-11-15T01:31:01;3.30;99.90
5705;DHT22;2877;48.238;11.160;2022-11-15T01:33:28;3.20;99.90
5705;DHT22;2877;48.238;11.160;2022-11-15T01:35:54;3.20;99.90
5705;DHT22;2877;48.238;11.160;2022-11-15T01:38:19;3.20;99.90
5705;DHT22;2877;48.238;11.160;2022-11-15T01:40:45;3.10;99.90
5705;DHT22;2877;48.238;11.160;2022-11-15T01:43:24;3.00;99.90
5705;DHT22;2877;48.238;11.160;2022-11-15T01:46:40;3.00;99.90
5705;DHT22;2877;48.238;11.160;2022-11-15T01:48:41;2.90;99.90
5705;DHT22;2877;48.238;11.160;2022-11-15T01:51:09;2.90;99.90
5705;DHT22;2877;48.238;11.160;2022-11-15T01:53:38;2.80;99.90
5705;DHT22;2877;48.238;11.160;2022-11-15T01:56:08;2.70;99.90
5705;DHT22;2877;48.238;11.160;2022-11-15T01:58:36;2.70;99.90
5705;DHT22;2877;48.238;11.160;2022-11-15T02:01:02;2.70;99.90
5705;DHT22;2877;48.238;11.160;2022-11-15T02:03:45;2.70;99.90
5705;DHT22;2877;48.238;11.160;2022-11-15T02:06:12;2.60;99.90
5705;DHT22;2877;48.238;11.160;2022-11-15T02:08:37;2.60;99.90
5705;DHT22;2877;48.238;11.160;2022-11-15T02:11:07;2.60;99.90
5705;DHT22;2877;48.238;11.160;2022-11-15T02:13:33;2.60;99.90
5705;DHT22;2877;48.238;11.160;2022-11-15T02:18:35;2.60;99.90
5705;DHT22;2877;48.238;11.160;2022-11-15T02:21:13;2.60;99.90
5705;DHT22;2877;48.238;11.160;2022-11-15T02:32:28;2.60;99.90
5705;DHT22;2877;48.238;11.160;2022-11-15T02:43:02;2.60;99.90
5705;DHT22;2877;48.238;11.160;2022-11-15T02:45:51;2.60;99.90
5705;DHT22;2877;48.238;11.160;2022-11-15T02:48:19;2.60;99.90
5705;DHT22;2877;48.238;11.160;2022-11-15T02:50:47;2.60;99.90
5705;DHT22;2877;48.238;11.160;2022-11-15T02:53:14;2.50;99.90
5705;DHT22;2877;48.238;11.160;2022-11-15T02:55:48;2.50;99.90
5705;DHT22;2877;48.238;11.160;2022-11-15T02:58:33;2.50;99.90
5705;DHT22;2877;48.238;11.160;2022-11-15T03:01:11;2.60;99.90
5705;DHT22;2877;48.238;11.160;2022-11-15T03:06:33;2.70;99.90
5705;DHT22;2877;48.238;11.160;2022-11-15T03:09:09;2.70;99.90
5705;DHT22;2877;48.238;11.160;2022-11-15T03:11:42;2.70;99.90
5705;DHT22;2877;48.238;11.160;2022-11-15T03:14:33;2.60;99.90
5705;DHT22;2877;48.238;11.160;2022-11-15T03:19:44;2.60;99.90
5705;DHT22;2877;48.238;11.160;2022-11-15T03:22:13;2.60;99.90
5705;DHT22;2877;48.238;11.160;2022-11-15T03:24:40;2.60;99.90
5705;DHT22;2877;48.238;11.160;2022-11-15T03:27:07;2.60;99.90
5705;DHT22;2877;48.238;11.160;2022-11-15T03:29:39;2.60;99.90
5705;DHT22;2877;48.238;11.160;2022-11-15T03:32:13;2.60;99.90
5705;DHT22;2877;48.238;11.160;2022-11-15T03:34:51;2.50;99.90
5705;DHT22;2877;48.238;11.160;2022-11-15T03:37:21;2.40;99.90
5705;DHT22;2877;48.238;11.160;2022-11-15T03:39:47;2.30;99.90
5705;DHT22;2877;48.238;11.160;2022-11-15T03:42:26;2.40;99.90
5705;DHT22;2877;48.238;11.160;2022-11-15T03:44:59;2.30;99.90
5705;DHT22;2877;48.238;11.160;2022-11-15T03:47:39;2.20;99.90
5705;DHT22;2877;48.238;11.160;2022-11-15T03:50:16;2.10;99.90
5705;DHT22;2877;48.238;11.160;2022-11-15T03:52:43;2.00;99.90
5705;DHT22;2877;48.238;11.160;2022-11-15T03:55:12;2.10;99.90
5705;DHT22;2877;48.238;11.160;2022-11-15T03:57:38;2.30;99.90
5705;DHT22;2877;48.238;11.160;2022-11-15T04:00:04;2.50;99.90
5705;DHT22;2877;48.238;11.160;2022-11-15T04:02:30;2.50;99.90
5705;DHT22;2877;48.238;11.160;2022-11-15T04:04:55;2.50;99.90
5705;DHT22;2877;48.238;11.160;2022-11-15T04:07:21;2.50;99.90
5705;DHT22;2877;48.238;11.160;2022-11-15T04:09:47;2.30;99.90
5705;DHT22;2877;48.238;11.160;2022-11-15T04:12:32;2.20;99.90
5705;DHT22;2877;48.238;11.160;2022-11-15T04:14:59;2.10;99.90
5705;DHT22;2877;48.238;11.160;2022-11-15T04:20:09;2.00;99.90
5705;DHT22;2877;48.238;11.160;2022-11-15T04:22:55;2.10;99.90
5705;DHT22;2877;48.238;11.160;2022-11-15T04:25:41;1.90;99.90
5705;DHT22;2877;48.238;11.160;2022-11-15T04:28:07;1.80;99.90
5705;DHT22;2877;48.238;11.160;2022-11-15T04:30:33;1.80;99.90
5705;DHT22;2877;48.238;11.160;2022-11-15T04:32:58;1.80;99.90
5705;DHT22;2877;48.238;11.160;2022-11-15T04:35:24;1.80;99.90
5705;DHT22;2877;48.238;11.160;2022-11-15T04:37:50;1.70;99.90
5705;DHT22;2877;48.238;11.160;2022-11-15T04:40:15;1.60;99.90
5705;DHT22;2877;48.238;11.160;2022-11-15T04:42:41;1.60;99.90
5705;DHT22;2877;48.238;11.160;2022-11-15T04:45:10;1.50;99.90
5705;DHT22;2877;48.238;11.160;2022-11-15T04:47:36;1.50;99.90
5705;DHT22;2877;48.238;11.160;2022-11-15T04:50:02;1.50;99.90
5705;DHT22;2877;48.238;11.160;2022-11-15T04:52:27;1.40;99.90
5705;DHT22;2877;48.238;11.160;2022-11-15T04:54:53;1.30;99.90
5705;DHT22;2877;48.238;11.160;2022-11-15T04:57:19;1.20;99.90
5705;DHT22;2877;48.238;11.160;2022-11-15T04:59:44;1.10;99.90
5705;DHT22;2877;48.238;11.160;2022-11-15T05:02:10;1.10;99.90
5705;DHT22;2877;48.238;11.160;2022-11-15T05:04:35;1.00;99.90
5705;DHT22;2877;48.238;11.160;2022-11-15T05:07:01;1.10;99.90
5705;DHT22;2877;48.238;11.160;2022-11-15T05:09:27;1.10;99.90
5705;DHT22;2877;48.238;11.160;2022-11-15T05:11:53;1.30;99.90
5705;DHT22;2877;48.238;11.160;2022-11-15T05:14:18;1.40;99.90
5705;DHT22;2877;48.238;11.160;2022-11-15T05:16:44;1.40;99.90
5705;DHT22;2877;48.238;11.160;2022-11-15T05:19:09;1.30;99.90
5705;DHT22;2877;48.238;11.160;2022-11-15T05:21:35;1.30;99.90
5705;DHT22;2877;48.238;11.160;2022-11-15T05:24:01;1.20;99.90
5705;DHT22;2877;48.238;11.160;2022-11-15T05:26:27;1.30;99.90
5705;DHT22;2877;48.238;11.160;2022-11-15T05:28:54;1.30;99.90
5705;DHT22;2877;48.238;11.160;2022-11-15T05:31:21;1.30;99.90
5705;DHT22;2877;48.238;11.160;2022-11-15T05:33:46;1.30;99.90
5705;DHT22;2877;48.238;11.160;2022-11-15T05:38:49;1.00;99.90
5705;DHT22;2877;48.238;11.160;2022-11-15T05:41:19;1.00;99.90
5705;DHT22;2877;48.238;11.160;2022-11-15T05:43:48;0.90;99.90
5705;DHT22;2877;48.238;11.160;2022-11-15T05:46:14;0.90;99.90
5705;DHT22;2877;48.238;11.160;2022-11-15T05:48:42;0.90;99.90
5705;DHT22;2877;48.238;11.160;2022-11-15T05:51:09;0.80;99.90
5705;DHT22;2877;48.238;11.160;2022-11-15T05:53:36;0.80;99.90
5705;DHT22;2877;48.238;11.160;2022-11-15T05:56:03;0.80;99.90
5705;DHT22;2877;48.238;11.160;2022-11-15T05:58:32;0.90;99.90
5705;DHT22;2877;48.238;11.160;2022-11-15T06:00:58;0.90;99.90
5705;DHT22;2877;48.238;11.160;2022-11-15T06:03:24;0.90;99.90
5705;DHT22;2877;48.238;11.160;2022-11-15T06:05:49;0.80;99.90
5705;DHT22;2877;48.238;11.160;2022-11-15T06:08:15;0.80;99.90
5705;DHT22;2877;48.238;11.160;2022-11-15T06:10:40;0.80;99.90
5705;DHT22;2877;48.238;11.160;2022-11-15T06:13:06;0.90;99.90
5705;DHT22;2877;48.238;11.160;2022-11-15T06:15:33;0.80;99.90
5705;DHT22;2877;48.238;11.160;2022-11-15T06:18:01;0.80;99.90
5705;DHT22;2877;48.238;11.160;2022-11-15T06:20:28;0.80;99.90
5705;DHT22;2877;48.238;11.160;2022-11-15T06:22:58;0.80;99.90
5705;DHT22;2877;48.238;11.160;2022-11-15T06:25:24;0.80;99.90
5705;DHT22;2877;48.238;11.160;2022-11-15T06:27:54;0.80;99.90
5705;DHT22;2877;48.238;11.160;2022-11-15T06:30:20;0.90;99.90
5705;DHT22;2877;48.238;11.160;2022-11-15T06:32:46;0.90;99.90
5705;DHT22;2877;48.238;11.160;2022-11-15T06:35:13;0.80;99.90
5705;DHT22;2877;48.238;11.160;2022-11-15T06:37:39;0.80;99.90
5705;DHT22;2877;48.238;11.160;2022-11-15T06:40:05;0.80;99.90
5705;DHT22;2877;48.238;11.160;2022-11-15T06:42:31;0.80;99.90
5705;DHT22;2877;48.238;11.160;2022-11-15T06:44:56;0.80;99.90
5705;DHT22;2877;48.238;11.160;2022-11-15T06:47:22;0.80;99.90
5705;DHT22;2877;48.238;11.160;2022-11-15T06:49:47;0.70;99.90
5705;DHT22;2877;48.238;11.160;2022-11-15T06:52:13;0.70;99.90
5705;DHT22;2877;48.238;11.160;2022-11-15T06:54:38;0.80;99.90
5705;DHT22;2877;48.238;11.160;2022-11-15T06:57:04;0.80;99.90
5705;DHT22;2877;48.238;11.160;2022-11-15T06:59:30;0.80;99.90
5705;DHT22;2877;48.238;11.160;2022-11-15T07:01:55;0.80;99.90
5705;DHT22;2877;48.238;11.160;2022-11-15T07:04:21;1.00;99.90
5705;DHT22;2877;48.238;11.160;2022-11-15T07:06:47;1.20;99.90
5705;DHT22;2877;48.238;11.160;2022-11-15T07:09:13;1.40;99.90
5705;DHT22;2877;48.238;11.160;2022-11-15T07:11:39;1.70;99.90
5705;DHT22;2877;48.238;11.160;2022-11-15T07:14:04;2.00;99.90
5705;DHT22;2877;48.238;11.160;2022-11-15T07:16:30;2.10;99.90
5705;DHT22;2877;48.238;11.160;2022-11-15T07:18:56;2.10;99.90
5705;DHT22;2877;48.238;11.160;2022-11-15T07:21:21;2.00;99.90
5705;DHT22;2877;48.238;11.160;2022-11-15T07:23:47;1.90;99.90
5705;DHT22;2877;48.238;11.160;2022-11-15T07:26:12;1.90;99.90
5705;DHT22;2877;48.238;11.160;2022-11-15T07:28:38;1.90;99.90
5705;DHT22;2877;48.238;11.160;2022-11-15T07:31:05;1.90;99.90
5705;DHT22;2877;48.238;11.160;2022-11-15T07:33:31;1.80;99.90
5705;DHT22;2877;48.238;11.160;2022-11-15T07:36:00;1.70;99.90
5705;DHT22;2877;48.238;11.160;2022-11-15T07:38:29;1.80;99.90
5705;DHT22;2877;48.238;11.160;2022-11-15T07:41:00;1.80;99.90
5705;DHT22;2877;48.238;11.160;2022-11-15T07:43:26;1.80;99.90
5705;DHT22;2877;48.238;11.160;2022-11-15T07:45:53;1.80;99.90
5705;DHT22;2877;48.238;11.160;2022-11-15T07:48:19;1.90;99.90
5705;DHT22;2877;48.238;11.160;2022-11-15T07:50:44;2.00;99.90
5705;DHT22;2877;48.238;11.160;2022-11-15T07:53:10;2.10;99.90
5705;DHT22;2877;48.238;11.160;2022-11-15T07:55:36;2.10;99.90
5705;DHT22;2877;48.238;11.160;2022-11-15T08:00:28;2.30;99.90
5705;DHT22;2877;48.238;11.160;2022-11-15T08:03:01;2.40;99.90
5705;DHT22;2877;48.238;11.160;2022-11-15T08:05:27;2.60;99.90
5705;DHT22;2877;48.238;11.160;2022-11-15T08:07:55;2.70;99.90
5705;DHT22;2877;48.238;11.160;2022-11-15T08:10:20;2.90;99.90
5705;DHT22;2877;48.238;11.160;2022-11-15T08:12:46;3.10;99.90
5705;DHT22;2877;48.238;11.160;2022-11-15T08:15:12;3.20;99.90
5705;DHT22;2877;48.238;11.160;2022-11-15T08:17:37;3.40;99.90
5705;DHT22;2877;48.238;11.160;2022-11-15T08:20:03;3.50;99.90
5705;DHT22;2877;48.238;11.160;2022-11-15T08:22:29;3.60;99.90
5705;DHT22;2877;48.238;11.160;2022-11-15T08:24:54;3.80;99.90
5705;DHT22;2877;48.238;11.160;2022-11-15T08:27:20;4.00;99.90
5705;DHT22;2877;48.238;11.160;2022-11-15T08:29:46;4.00;99.90
5705;DHT22;2877;48.238;11.160;2022-11-15T08:32:12;4.00;99.90
5705;DHT22;2877;48.238;11.160;2022-11-15T08:34:38;4.00;99.90
5705;DHT22;2877;48.238;11.160;2022-11-15T08:37:04;4.10;99.90
5705;DHT22;2877;48.238;11.160;2022-11-15T08:39:30;4.30;99.90
5705;DHT22;2877;48.238;11.160;2022-11-15T08:41:55;4.40;99.90
5705;DHT22;2877;48.238;11.160;2022-11-15T08:44:21;4.60;99.90
5705;DHT22;2877;48.238;11.160;2022-11-15T08:46:47;4.70;99.90
5705;DHT22;2877;48.238;11.160;2022-11-15T08:49:13;4.90;99.90
5705;DHT22;2877;48.238;11.160;2022-11-15T08:51:39;5.20;99.90
5705;DHT22;2877;48.238;11.160;2022-11-15T08:54:04;5.40;99.90
5705;DHT22;2877;48.238;11.160;2022-11-15T08:56:30;5.60;99.90
5705;DHT22;2877;48.238;11.160;2022-11-15T08:58:55;5.80;99.90
5705;DHT22;2877;48.238;11.160;2022-11-15T09:01:21;6.10;99.90
5705;DHT22;2877;48.238;11.160;2022-11-15T09:03:47;6.30;99.90
5705;DHT22;2877;48.238;11.160;2022-11-15T09:06:13;6.40;99.90
5705;DHT22;2877;48.238;11.160;2022-11-15T09:08:39;6.50;99.90
5705;DHT22;2877;48.238;11.160;2022-11-15T09:11:09;6.60;99.90
5705;DHT22;2877;48.238;11.160;2022-11-15T09:13:35;6.70;99.90
5705;DHT22;2877;48.238;11.160;2022-11-15T09:16:03;6.70;99.90
5705;DHT22;2877;48.238;11.160;2022-11-15T09:18:29;6.80;99.90
5705;DHT22;2877;48.238;11.160;2022-11-15T09:20:56;6.90;99.90
5705;DHT22;2877;48.238;11.160;2022-11-15T09:23:22;7.00;99.90
5705;DHT22;2877;48.238;11.160;2022-11-15T09:25:48;7.20;99.90
5705;DHT22;2877;48.238;11.160;2022-11-15T09:28:14;7.40;99.90
5705;DHT22;2877;48.238;11.160;2022-11-15T09:30:39;7.50;99.90
5705;DHT22;2877;48.238;11.160;2022-11-15T09:33:09;7.60;99.90
5705;DHT22;2877;48.238;11.160;2022-11-15T09:35:35;7.60;99.90
5705;DHT22;2877;48.238;11.160;2022-11-15T09:38:01;7.70;99.90
5705;DHT22;2877;48.238;11.160;2022-11-15T09:40:27;7.80;99.90
5705;DHT22;2877;48.238;11.160;2022-11-15T09:43:00;7.80;99.90
5705;DHT22;2877;48.238;11.160;2022-11-15T09:45:56;7.90;99.90
5705;DHT22;2877;48.238;11.160;2022-11-15T09:50:57;8.00;99.90
5705;DHT22;2877;48.238;11.160;2022-11-15T09:53:45;8.10;99.90
5705;DHT22;2877;48.238;11.160;2022-11-15T09:56:19;8.20;99.90
5705;DHT22;2877;48.238;11.160;2022-11-15T09:59:51;8.30;99.90
5705;DHT22;2877;48.238;11.160;2022-11-15T10:04:33;8.50;99.90
5705;DHT22;2877;48.238;11.160;2022-11-15T10:10:04;8.50;99.90
5705;DHT22;2877;48.238;11.160;2022-11-15T10:12:34;8.60;99.90
5705;DHT22;2877;48.238;11.160;2022-11-15T10:15:04;8.70;99.90
5705;DHT22;2877;48.238;11.160;2022-11-15T10:20:27;8.80;99.90
5705;DHT22;2877;48.238;11.160;2022-11-15T10:23:00;9.00;99.90
5705;DHT22;2877;48.238;11.160;2022-11-15T10:25:28;9.00;99.90
5705;DHT22;2877;48.238;11.160;2022-11-15T10:30:42;9.20;99.90
5705;DHT22;2877;48.238;11.160;2022-11-15T10:35:48;9.30;99.90
5705;DHT22;2877;48.238;11.160;2022-11-15T10:38:13;9.30;99.90
5705;DHT22;2877;48.238;11.160;2022-11-15T10:40:40;9.30;99.90
5705;DHT22;2877;48.238;11.160;2022-11-15T10:45:35;9.50;99.90
5705;DHT22;2877;48.238;11.160;2022-11-15T10:48:20;9.50;99.90
5705;DHT22;2877;48.238;11.160;2022-11-15T10:50:48;9.60;99.90
5705;DHT22;2877;48.238;11.160;2022-11-15T10:53:25;9.70;99.90
5705;DHT22;2877;48.238;11.160;2022-11-15T10:55:55;9.70;99.90
5705;DHT22;2877;48.238;11.160;2022-11-15T10:58:32;9.70;99.90
5705;DHT22;2877;48.238;11.160;2022-11-15T11:03:42;9.90;99.90
5705;DHT22;2877;48.238;11.160;2022-11-15T11:06:16;10.00;99.90
5705;DHT22;2877;48.238;11.160;2022-11-15T11:09:03;10.10;99.90
5705;DHT22;2877;48.238;11.160;2022-11-15T11:11:49;10.10;99.90
5705;DHT22;2877;48.238;11.160;2022-11-15T11:14:26;10.10;99.90
5705;DHT22;2877;48.238;11.160;2022-11-15T11:17:23;10.10;99.90
5705;DHT22;2877;48.238;11.160;2022-11-15T11:31:33;10.40;99.90
5705;DHT22;2877;48.238;11.160;2022-11-15T11:37:20;10.30;99.90
5705;DHT22;2877;48.238;11.160;2022-11-15T11:40:13;10.30;99.90
5705;DHT22;2877;48.238;11.160;2022-11-15T11:48:14;10.50;99.90
5705;DHT22;2877;48.238;11.160;2022-11-15T11:50:46;10.50;99.90
5705;DHT22;2877;48.238;11.160;2022-11-15T11:53:29;10.60;99.90
5705;DHT22;2877;48.238;11.160;2022-11-15T11:55:58;10.60;99.90
5705;DHT22;2877;48.238;11.160;2022-11-15T11:58:40;10.70;99.90
5705;DHT22;2877;48.238;11.160;2022-11-15T12:03:48;10.60;99.90
5705;DHT22;2877;48.238;11.160;2022-11-15T12:08:52;10.70;99.90
5705;DHT22;2877;48.238;11.160;2022-11-15T12:16:52;10.70;99.90
5705;DHT22;2877;48.238;11.160;2022-11-15T12:19:18;10.60;99.90
5705;DHT22;2877;48.238;11.160;2022-11-15T12:21:48;10.70;99.90
5705;DHT22;2877;48.238;11.160;2022-11-15T12:24:23;10.80;99.90
5705;DHT22;2877;48.238;11.160;2022-11-15T12:26:56;10.90;99.90
5705;DHT22;2877;48.238;11.160;2022-11-15T12:31:55;10.90;99.90
5705;DHT22;2877;48.238;11.160;2022-11-15T12:36:53;10.90;99.90
5705;DHT22;2877;48.238;11.160;2022-11-15T12:39:20;10.90;99.90
5705;DHT22;2877;48.238;11.160;2022-11-15T12:52:03;10.90;99.90
5705;DHT22;2877;48.238;11.160;2022-11-15T12:59:57;10.90;99.90
5705;DHT22;2877;48.238;11.160;2022-11-15T13:02:29;10.90;99.90
5705;DHT22;2877;48.238;11.160;2022-11-15T13:17:49;11.00;99.90
5705;DHT22;2877;48.238;11.160;2022-11-15T13:31:01;11.20;99.90
5705;DHT22;2877;48.238;11.160;2022-11-15T13:33:34;11.20;99.90
5705;DHT22;2877;48.238;11.160;2022-11-15T13:36:06;11.20;99.90
5705;DHT22;2877;48.238;11.160;2022-11-15T13:38:34;11.20;99.90
5705;DHT22;2877;48.238;11.160;2022-11-15T13:41:21;11.20;99.90
5705;DHT22;2877;48.238;11.160;2022-11-15T13:43:49;11.30;99.90
5705;DHT22;2877;48.238;11.160;2022-11-15T13:46:25;11.40;99.90
5705;DHT22;2877;48.238;11.160;2022-11-15T13:48:54;11.40;99.90
5705;DHT22;2877;48.238;11.160;2022-11-15T13:51:51;11.50;99.90
5705;DHT22;2877;48.238;11.160;2022-11-15T13:54:25;11.50;99.90
5705;DHT22;2877;48.238;11.160;2022-11-15T13:59:35;11.50;99.90
5705;DHT22;2877;48.238;11.160;2022-11-15T14:02:12;11.50;99.90
5705;DHT22;2877;48.238;11.160;2022-11-15T14:04:45;11.40;99.90
5705;DHT22;2877;48.238;11.160;2022-11-15T14:07:17;11.30;99.90
5705;DHT22;2877;48.238;11.160;2022-11-15T14:09:44;11.30;99.90
5705;DHT22;2877;48.238;11.160;2022-11-15T14:12:24;11.30;99.90
5705;DHT22;2877;48.238;11.160;2022-11-15T14:14:50;11.20;99.90
5705;DHT22;2877;48.238;11.160;2022-11-15T14:19:55;11.10;99.90
5705;DHT22;2877;48.238;11.160;2022-11-15T14:22:22;11.00;99.90
5705;DHT22;2877;48.238;11.160;2022-11-15T14:27:35;10.90;99.90
5705;DHT22;2877;48.238;11.160;2022-11-15T14:30:00;10.80;99.90
5705;DHT22;2877;48.238;11.160;2022-11-15T14:35:13;10.50;99.90
5705;DHT22;2877;48.238;11.160;2022-11-15T14:37:39;10.30;99.90
5705;DHT22;2877;48.238;11.160;2022-11-15T14:40:06;10.10;99.90
5705;DHT22;2877;48.238;11.160;2022-11-15T14:42:32;9.90;99.90
5705;DHT22;2877;48.238;11.160;2022-11-15T14:44:57;9.70;99.90
5705;DHT22;2877;48.238;11.160;2022-11-15T14:47:23;9.50;99.90
5705;DHT22;2877;48.238;11.160;2022-11-15T14:49:49;9.30;99.90
5705;DHT22;2877;48.238;11.160;2022-11-15T14:52:31;9.20;99.90
5705;DHT22;2877;48.238;11.160;2022-11-15T14:55:02;9.10;99.90
5705;DHT22;2877;48.238;11.160;2022-11-15T14:57:28;9.00;99.90
5705;DHT22;2877;48.238;11.160;2022-11-15T14:59:54;8.90;99.90
5705;DHT22;2877;48.238;11.160;2022-11-15T15:02:22;8.80;99.90
5705;DHT22;2877;48.238;11.160;2022-11-15T15:04:49;8.80;99.90
5705;DHT22;2877;48.238;11.160;2022-11-15T15:07:15;8.70;99.90
5705;DHT22;2877;48.238;11.160;2022-11-15T15:09:41;8.60;99.90
5705;DHT22;2877;48.238;11.160;2022-11-15T15:12:19;8.60;99.90
5705;DHT22;2877;48.238;11.160;2022-11-15T15:14:46;8.50;99.90
5705;DHT22;2877;48.238;11.160;2022-11-15T15:17:12;8.50;99.90
5705;DHT22;2877;48.238;11.160;2022-11-15T15:19:38;8.40;99.90
5705;DHT22;2877;48.238;11.160;2022-11-15T15:22:04;8.40;99.90
5705;DHT22;2877;48.238;11.160;2022-11-15T15:24:30;8.30;99.90
5705;DHT22;2877;48.238;11.160;2022-11-15T15:26:55;8.30;99.90
5705;DHT22;2877;48.238;11.160;2022-11-15T15:29:21;8.20;99.90
5705;DHT22;2877;48.238;11.160;2022-11-15T15:31:46;8.10;99.90
5705;DHT22;2877;48.238;11.160;2022-11-15T15:34:12;8.00;99.90
5705;DHT22;2877;48.238;11.160;2022-11-15T15:36:38;8.00;99.90
5705;DHT22;2877;48.238;11.160;2022-11-15T15:39:03;8.00;99.90
5705;DHT22;2877;48.238;11.160;2022-11-15T15:41:29;7.90;99.90
5705;DHT22;2877;48.238;11.160;2022-11-15T15:43:54;7.80;99.90
5705;DHT22;2877;48.238;11.160;2022-11-15T15:46:20;7.80;99.90
5705;DHT22;2877;48.238;11.160;2022-11-15T15:48:46;7.70;99.90
5705;DHT22;2877;48.238;11.160;2022-11-15T15:51:12;7.70;99.90
5705;DHT22;2877;48.238;11.160;2022-11-15T15:53:38;7.70;99.90
5705;DHT22;2877;48.238;11.160;2022-11-15T15:56:04;7.70;99.90
5705;DHT22;2877;48.238;11.160;2022-11-15T15:58:33;7.70;99.90
5705;DHT22;2877;48.238;11.160;2022-11-15T16:00:58;7.70;99.90
5705;DHT22;2877;48.238;11.160;2022-11-15T16:03:24;7.60;99.90
5705;DHT22;2877;48.238;11.160;2022-11-15T16:05:50;7.60;99.90
5705;DHT22;2877;48.238;11.160;2022-11-15T16:08:20;7.50;99.90
5705;DHT22;2877;48.238;11.160;2022-11-15T16:10:46;7.50;99.90
5705;DHT22;2877;48.238;11.160;2022-11-15T16:13:12;7.50;99.90
5705;DHT22;2877;48.238;11.160;2022-11-15T16:15:37;7.50;99.90
5705;DHT22;2877;48.238;11.160;2022-11-15T16:18:04;7.50;99.90
5705;DHT22;2877;48.238;11.160;2022-11-15T16:20:43;7.50;99.90
5705;DHT22;2877;48.238;11.160;2022-11-15T16:23:18;7.50;99.90
5705;DHT22;2877;48.238;11.160;2022-11-15T16:25:53;7.40;99.90
5705;DHT22;2877;48.238;11.160;2022-11-15T16:28:31;7.40;99.90
5705;DHT22;2877;48.238;11.160;2022-11-15T16:31:02;7.40;99.90
5705;DHT22;2877;48.238;11.160;2022-11-15T16:33:28;7.40;99.90
5705;DHT22;2877;48.238;11.160;2022-11-15T16:35:54;7.40;99.90
5705;DHT22;2877;48.238;11.160;2022-11-15T16:38:19;7.30;99.90
5705;DHT22;2877;48.238;11.160;2022-11-15T16:40:45;7.20;99.90
5705;DHT22;2877;48.238;11.160;2022-11-15T16:43:10;7.20;99.90
5705;DHT22;2877;48.238;11.160;2022-11-15T16:45:36;7.20;99.90
5705;DHT22;2877;48.238;11.160;2022-11-15T16:48:02;7.20;99.90
5705;DHT22;2877;48.238;11.160;2022-11-15T16:50:30;7.20;99.90
5705;DHT22;2877;48.238;11.160;2022-11-15T16:52:58;7.20;99.90
5705;DHT22;2877;48.238;11.160;2022-11-15T16:55:26;7.20;99.90
5705;DHT22;2877;48.238;11.160;2022-11-15T16:57:52;7.20;99.90
5705;DHT22;2877;48.238;11.160;2022-11-15T17:00:19;7.20;99.90
5705;DHT22;2877;48.238;11.160;2022-11-15T17:02:46;7.20;99.90
5705;DHT22;2877;48.238;11.160;2022-11-15T17:05:13;7.20;99.90
5705;DHT22;2877;48.238;11.160;2022-11-15T17:07:39;7.10;99.90
5705;DHT22;2877;48.238;11.160;2022-11-15T17:10:06;7.10;99.90
5705;DHT22;2877;48.238;11.160;2022-11-15T17:12:33;7.00;99.90
5705;DHT22;2877;48.238;11.160;2022-11-15T17:14:59;7.00;99.90
5705;DHT22;2877;48.238;11.160;2022-11-15T17:17:25;6.90;99.90
5705;DHT22;2877;48.238;11.160;2022-11-15T17:19:52;6.90;99.90
5705;DHT22;2877;48.238;11.160;2022-11-15T17:22:20;6.80;99.90
5705;DHT22;2877;48.238;11.160;2022-11-15T17:24:46;6.90;99.90
5705;DHT22;2877;48.238;11.160;2022-11-15T17:27:11;6.90;99.90
5705;DHT22;2877;48.238;11.160;2022-11-15T17:29:37;7.00;99.90
5705;DHT22;2877;48.238;11.160;2022-11-15T17:32:03;7.00;99.90
5705;DHT22;2877;48.238;11.160;2022-11-15T17:34:28;7.00;99.90
5705;DHT22;2877;48.238;11.160;2022-11-15T17:36:54;7.00;99.90
5705;DHT22;2877;48.238;11.160;2022-11-15T17:39:19;6.90;99.90
5705;DHT22;2877;48.238;11.160;2022-11-15T17:41:46;6.80;99.90
5705;DHT22;2877;48.238;11.160;2022-11-15T17:44:12;6.70;99.90
5705;DHT22;2877;48.238;11.160;2022-11-15T17:46:37;6.70;99.90
5705;DHT22;2877;48.238;11.160;2022-11-15T17:49:05;6.70;99.90
5705;DHT22;2877;48.238;11.160;2022-11-15T17:51:31;6.70;99.90
5705;DHT22;2877;48.238;11.160;2022-11-15T17:53:57;6.70;99.90
5705;DHT22;2877;48.238;11.160;2022-11-15T17:56:24;6.70;99.90
5705;DHT22;2877;48.238;11.160;2022-11-15T17:58:56;6.80;99.90
5705;DHT22;2877;48.238;11.160;2022-11-15T18:01:32;6.80;99.90
5705;DHT22;2877;48.238;11.160;2022-11-15T18:03:58;6.80;99.90
5705;DHT22;2877;48.238;11.160;2022-11-15T18:06:27;6.80;99.90
5705;DHT22;2877;48.238;11.160;2022-11-15T18:08:56;6.70;99.90
5705;DHT22;2877;48.238;11.160;2022-11-15T18:11:24;6.70;99.90
5705;DHT22;2877;48.238;11.160;2022-11-15T18:13:53;6.70;99.90
5705;DHT22;2877;48.238;11.160;2022-11-15T18:16:20;6.60;99.90
5705;DHT22;2877;48.238;11.160;2022-11-15T18:18:47;6.60;99.90
5705;DHT22;2877;48.238;11.160;2022-11-15T18:21:17;6.60;99.90
5705;DHT22;2877;48.238;11.160;2022-11-15T18:23:45;6.60;99.90
5705;DHT22;2877;48.238;11.160;2022-11-15T18:26:12;6.60;99.90
5705;DHT22;2877;48.238;11.160;2022-11-15T18:28:41;6.60;99.90